Jakin, Georgia
Current Conditions -  °F | °C
As of 12:53 AM on Thursday 27 Nov 2014 (Local Time) from KMAI Reporting Station
Clear Clear  
Wind Chill: 43°   Ceiling: Unl
Heat Index: 47°   Visibility: 10mi
Dew Point: 42°   Wind: 8mph
Humidity: 83%   Direction: 200°SSW
Pressure: 30.18"   Gusts: NA
Location:  31.09°N, 84.98°W
Report Text: KMAI 270553Z AUTO 20007KT 10SM CLR 08/06 A3018 RMK AO2 SLP221 T00830056 10100 20072 401720056 58002
Loading
Personal Weather Stations






























Interactive Weather Map New forecast layout! Learn more

10-Day Weather Forecast

Advertisements
Track Severe Weather on mobile